sensor_id;sensor_type;location;lat;lon;timestamp;pressure;altitude;pressure_sealevel;temperature;humidity
15263;BME280;7733;51.554;13.590;2022-08-19T00:01:36;99599.59;;;22.87;100.00
15263;BME280;7733;51.554;13.590;2022-08-19T00:04:07;99605.72;;;22.76;100.00
15263;BME280;7733;51.554;13.590;2022-08-19T00:06:35;99601.81;;;22.69;100.00
15263;BME280;7733;51.554;13.590;2022-08-19T00:09:04;99590.28;;;22.69;100.00
15263;BME280;7733;51.554;13.590;2022-08-19T00:11:32;99591.59;;;22.63;100.00
15263;BME280;7733;51.554;13.590;2022-08-19T00:13:58;99598.84;;;22.50;100.00
15263;BME280;7733;51.554;13.590;2022-08-19T00:16:25;99589.66;;;22.65;100.00
15263;BME280;7733;51.554;13.590;2022-08-19T00:18:51;99598.25;;;22.23;100.00
15263;BME280;7733;51.554;13.590;2022-08-19T00:21:16;99596.53;;;22.57;100.00
15263;BME280;7733;51.554;13.590;2022-08-19T00:23:42;99607.41;;;22.66;100.00
15263;BME280;7733;51.554;13.590;2022-08-19T00:26:10;99608.38;;;22.65;100.00
15263;BME280;7733;51.554;13.590;2022-08-19T00:28:36;99619.81;;;22.67;100.00
15263;BME280;7733;51.554;13.590;2022-08-19T00:31:05;99621.22;;;22.60;100.00
15263;BME280;7733;51.554;13.590;2022-08-19T00:33:32;99614.44;;;22.67;100.00
15263;BME280;7733;51.554;13.590;2022-08-19T00:36:03;99617.56;;;22.50;100.00
15263;BME280;7733;51.554;13.590;2022-08-19T00:38:30;99618.41;;;22.51;100.00
15263;BME280;7733;51.554;13.590;2022-08-19T00:40:56;99630.19;;;22.48;100.00
15263;BME280;7733;51.554;13.590;2022-08-19T00:43:24;99634.22;;;22.30;100.00
15263;BME280;7733;51.554;13.590;2022-08-19T00:45:52;99650.94;;;22.44;100.00
15263;BME280;7733;51.554;13.590;2022-08-19T00:48:19;99649.53;;;22.28;100.00
15263;BME280;7733;51.554;13.590;2022-08-19T00:50:48;99644.72;;;22.20;100.00
15263;BME280;7733;51.554;13.590;2022-08-19T00:55:48;99659.13;;;22.30;100.00
15263;BME280;7733;51.554;13.590;2022-08-19T00:58:18;99656.97;;;22.11;100.00
15263;BME280;7733;51.554;13.590;2022-08-19T01:00:46;99661.44;;;21.98;100.00
15263;BME280;7733;51.554;13.590;2022-08-19T01:03:18;99664.47;;;22.06;100.00
15263;BME280;7733;51.554;13.590;2022-08-19T01:05:45;99656.28;;;22.21;100.00
15263;BME280;7733;51.554;13.590;2022-08-19T01:08:13;99647.19;;;22.23;100.00
15263;BME280;7733;51.554;13.590;2022-08-19T01:10:45;99646.91;;;22.02;100.00
15263;BME280;7733;51.554;13.590;2022-08-19T01:13:16;99649.34;;;22.18;100.00
15263;BME280;7733;51.554;13.590;2022-08-19T01:15:50;99643.25;;;22.16;100.00
15263;BME280;7733;51.554;13.590;2022-08-19T01:18:19;99636.84;;;22.19;100.00
15263;BME280;7733;51.554;13.590;2022-08-19T01:20:46;99640.03;;;21.87;100.00
15263;BME280;7733;51.554;13.590;2022-08-19T01:23:13;99645.03;;;21.92;100.00
15263;BME280;7733;51.554;13.590;2022-08-19T01:25:52;99640.34;;;22.19;100.00
15263;BME280;7733;51.554;13.590;2022-08-19T01:28:25;99655.84;;;22.27;100.00
15263;BME280;7733;51.554;13.590;2022-08-19T01:30:53;99664.97;;;22.11;100.00
15263;BME280;7733;51.554;13.590;2022-08-19T01:33:20;99669.88;;;22.17;100.00
15263;BME280;7733;51.554;13.590;2022-08-19T01:35:47;99661.28;;;22.25;100.00
15263;BME280;7733;51.554;13.590;2022-08-19T01:38:25;99666.44;;;22.15;100.00
15263;BME280;7733;51.554;13.590;2022-08-19T01:40:52;99658.44;;;22.15;100.00
15263;BME280;7733;51.554;13.590;2022-08-19T01:43:18;99651.47;;;22.26;100.00
15263;BME280;7733;51.554;13.590;2022-08-19T01:45:45;99654.06;;;22.14;100.00
15263;BME280;7733;51.554;13.590;2022-08-19T01:48:11;99658.38;;;22.04;100.00
15263;BME280;7733;51.554;13.590;2022-08-19T01:50:37;99653.31;;;22.12;100.00
15263;BME280;7733;51.554;13.590;2022-08-19T01:53:07;99653.03;;;22.04;100.00
15263;BME280;7733;51.554;13.590;2022-08-19T01:55:38;99650.94;;;22.21;100.00
15263;BME280;7733;51.554;13.590;2022-08-19T01:58:05;99650.50;;;22.27;100.00
15263;BME280;7733;51.554;13.590;2022-08-19T02:00:33;99654.75;;;22.29;100.00
15263;BME280;7733;51.554;13.590;2022-08-19T02:02:58;99638.97;;;22.26;100.00
15263;BME280;7733;51.554;13.590;2022-08-19T02:05:27;99632.88;;;22.24;100.00
15263;BME280;7733;51.554;13.590;2022-08-19T02:07:55;99651.69;;;22.23;100.00
15263;BME280;7733;51.554;13.590;2022-08-19T02:10:22;99651.16;;;22.17;100.00
15263;BME280;7733;51.554;13.590;2022-08-19T02:12:49;99653.22;;;22.14;100.00
15263;BME280;7733;51.554;13.590;2022-08-19T02:15:16;99639.22;;;22.34;100.00
15263;BME280;7733;51.554;13.590;2022-08-19T02:17:42;99636.50;;;22.23;100.00
15263;BME280;7733;51.554;13.590;2022-08-19T02:20:09;99631.44;;;22.07;100.00
15263;BME280;7733;51.554;13.590;2022-08-19T02:22:34;99629.91;;;22.16;100.00
15263;BME280;7733;51.554;13.590;2022-08-19T02:25:01;99634.75;;;22.11;100.00
15263;BME280;7733;51.554;13.590;2022-08-19T02:27:27;99631.09;;;22.12;100.00
15263;BME280;7733;51.554;13.590;2022-08-19T02:29:53;99642.28;;;22.17;100.00
15263;BME280;7733;51.554;13.590;2022-08-19T02:32:19;99637.38;;;22.24;100.00
15263;BME280;7733;51.554;13.590;2022-08-19T02:34:47;99638.22;;;22.24;100.00
15263;BME280;7733;51.554;13.590;2022-08-19T02:37:13;99634.97;;;21.95;100.00
15263;BME280;7733;51.554;13.590;2022-08-19T02:39:58;99637.44;;;22.22;100.00
15263;BME280;7733;51.554;13.590;2022-08-19T02:42:24;99640.81;;;22.00;100.00
15263;BME280;7733;51.554;13.590;2022-08-19T02:44:50;99642.38;;;21.92;100.00
15263;BME280;7733;51.554;13.590;2022-08-19T02:47:18;99651.50;;;22.00;100.00
15263;BME280;7733;51.554;13.590;2022-08-19T02:49:45;99647.13;;;22.12;100.00
15263;BME280;7733;51.554;13.590;2022-08-19T02:52:11;99643.69;;;22.23;100.00
15263;BME280;7733;51.554;13.590;2022-08-19T02:54:37;99635.28;;;22.03;100.00
15263;BME280;7733;51.554;13.590;2022-08-19T02:57:04;99633.38;;;22.05;100.00
15263;BME280;7733;51.554;13.590;2022-08-19T02:59:32;99631.44;;;22.07;100.00
15263;BME280;7733;51.554;13.590;2022-08-19T03:01:58;99624.41;;;22.06;100.00
15263;BME280;7733;51.554;13.590;2022-08-19T03:04:23;99622.00;;;22.14;100.00
15263;BME280;7733;51.554;13.590;2022-08-19T03:06:50;99611.69;;;22.21;100.00
15263;BME280;7733;51.554;13.590;2022-08-19T03:09:18;99628.13;;;22.04;100.00
15263;BME280;7733;51.554;13.590;2022-08-19T03:11:44;99629.66;;;22.19;100.00
15263;BME280;7733;51.554;13.590;2022-08-19T03:14:10;99640.19;;;22.09;100.00
15263;BME280;7733;51.554;13.590;2022-08-19T03:16:47;99651.13;;;22.06;100.00
15263;BME280;7733;51.554;13.590;2022-08-19T03:19:17;99652.56;;;22.23;100.00
15263;BME280;7733;51.554;13.590;2022-08-19T03:21:44;99656.16;;;22.22;100.00
15263;BME280;7733;51.554;13.590;2022-08-19T03:24:12;99656.81;;;22.26;100.00
15263;BME280;7733;51.554;13.590;2022-08-19T03:26:42;99659.13;;;22.30;100.00
15263;BME280;7733;51.554;13.590;2022-08-19T03:29:08;99660.25;;;22.39;100.00
15263;BME280;7733;51.554;13.590;2022-08-19T03:31:37;99656.28;;;22.21;100.00
15263;BME280;7733;51.554;13.590;2022-08-19T03:34:03;99651.00;;;21.95;100.00
15263;BME280;7733;51.554;13.590;2022-08-19T03:36:29;99642.13;;;21.95;100.00
15263;BME280;7733;51.554;13.590;2022-08-19T03:38:58;99639.00;;;22.13;100.00
15263;BME280;7733;51.554;13.590;2022-08-19T03:41:35;99636.31;;;22.13;100.00
15263;BME280;7733;51.554;13.590;2022-08-19T03:44:02;99640.94;;;22.11;100.00
15263;BME280;7733;51.554;13.590;2022-08-19T03:46:32;99644.69;;;22.09;100.00
15263;BME280;7733;51.554;13.590;2022-08-19T03:49:01;99641.16;;;21.96;100.00
15263;BME280;7733;51.554;13.590;2022-08-19T03:51:37;99631.94;;;21.76;100.00
15263;BME280;7733;51.554;13.590;2022-08-19T03:54:08;99641.63;;;21.90;100.00
15263;BME280;7733;51.554;13.590;2022-08-19T03:56:37;99636.78;;;22.07;100.00
15263;BME280;7733;51.554;13.590;2022-08-19T03:59:05;99630.00;;;22.38;100.00
15263;BME280;7733;51.554;13.590;2022-08-19T04:01:31;99626.63;;;22.12;100.00
15263;BME280;7733;51.554;13.590;2022-08-19T04:03:58;99633.88;;;22.10;100.00
15263;BME280;7733;51.554;13.590;2022-08-19T04:08:57;99634.50;;;22.38;100.00
15263;BME280;7733;51.554;13.590;2022-08-19T04:11:36;99639.34;;;22.09;100.00
15263;BME280;7733;51.554;13.590;2022-08-19T04:14:02;99634.03;;;22.20;100.00
15263;BME280;7733;51.554;13.590;2022-08-19T04:16:28;99631.38;;;22.44;100.00
15263;BME280;7733;51.554;13.590;2022-08-19T04:18:56;99633.59;;;22.50;100.00
15263;BME280;7733;51.554;13.590;2022-08-19T04:21:25;99642.94;;;22.44;100.00
15263;BME280;7733;51.554;13.590;2022-08-19T04:23:52;99657.94;;;21.98;100.00
15263;BME280;7733;51.554;13.590;2022-08-19T04:26:23;99663.28;;;22.10;100.00
15263;BME280;7733;51.554;13.590;2022-08-19T04:28:49;99643.59;;;22.11;100.00
15263;BME280;7733;51.554;13.590;2022-08-19T04:31:20;99642.41;;;22.15;100.00
